sensor_id;sensor_type;location;lat;lon;timestamp;pressure;altitude;pressure_sealevel;temperature;humidity
63181;BME280;49273;37.772;-122.432;2022-10-17T00:00:17;101175.97;;;21.65;55.98
63181;BME280;49273;37.772;-122.432;2022-10-17T00:02:45;101173.20;;;21.57;53.92
63181;BME280;49273;37.772;-122.432;2022-10-17T00:05:14;101172.59;;;21.32;55.64
63181;BME280;49273;37.772;-122.432;2022-10-17T00:07:43;101169.32;;;21.16;56.08
63181;BME280;49273;37.772;-122.432;2022-10-17T00:10:11;101168.19;;;21.16;56.49
63181;BME280;49273;37.772;-122.432;2022-10-17T00:12:39;101169.01;;;21.06;55.60
63181;BME280;49273;37.772;-122.432;2022-10-17T00:15:08;101165.70;;;21.09;56.89
63181;BME280;49273;37.772;-122.432;2022-10-17T00:17:36;101164.47;;;20.88;55.62
63181;BME280;49273;37.772;-122.432;2022-10-17T00:20:04;101165.37;;;20.91;57.18
63181;BME280;49273;37.772;-122.432;2022-10-17T00:22:32;101163.01;;;20.89;55.88
63181;BME280;49273;37.772;-122.432;2022-10-17T00:25:00;101161.78;;;20.92;57.33
63181;BME280;49273;37.772;-122.432;2022-10-17T00:27:28;101158.16;;;20.90;55.42
63181;BME280;49273;37.772;-122.432;2022-10-17T00:29:56;101154.77;;;20.83;55.79
63181;BME280;49273;37.772;-122.432;2022-10-17T00:32:23;101151.88;;;20.91;55.77
63181;BME280;49273;37.772;-122.432;2022-10-17T00:34:52;101150.91;;;20.74;56.51
63181;BME280;49273;37.772;-122.432;2022-10-17T00:37:21;101147.52;;;20.76;58.32
63181;BME280;49273;37.772;-122.432;2022-10-17T00:39:49;101148.22;;;20.53;57.38
63181;BME280;49273;37.772;-122.432;2022-10-17T00:42:17;101147.92;;;20.48;60.05
63181;BME280;49273;37.772;-122.432;2022-10-17T00:45:09;101147.85;;;20.48;59.13
63181;BME280;49273;37.772;-122.432;2022-10-17T00:47:40;101147.87;;;20.43;59.18
63181;BME280;49273;37.772;-122.432;2022-10-17T00:50:10;101144.79;;;20.30;59.69
63181;BME280;49273;37.772;-122.432;2022-10-17T00:52:40;101141.99;;;20.28;58.21
63181;BME280;49273;37.772;-122.432;2022-10-17T00:55:12;101144.67;;;20.37;58.21
63181;BME280;49273;37.772;-122.432;2022-10-17T00:57:41;101147.01;;;20.37;59.06
63181;BME280;49273;37.772;-122.432;2022-10-17T01:00:11;101145.84;;;20.27;58.96
63181;BME280;49273;37.772;-122.432;2022-10-17T01:02:40;101146.91;;;20.19;59.84
63181;BME280;49273;37.772;-122.432;2022-10-17T01:05:10;101148.19;;;20.05;58.98
63181;BME280;49273;37.772;-122.432;2022-10-17T01:07:39;101149.29;;;20.05;58.44
63181;BME280;49273;37.772;-122.432;2022-10-17T01:10:08;101148.07;;;20.08;57.97
63181;BME280;49273;37.772;-122.432;2022-10-17T01:12:47;101146.56;;;20.01;59.18
63181;BME280;49273;37.772;-122.432;2022-10-17T01:15:27;101144.36;;;19.90;60.70
63181;BME280;49273;37.772;-122.432;2022-10-17T01:18:10;101144.10;;;19.68;61.06
63181;BME280;49273;37.772;-122.432;2022-10-17T01:21:07;101143.54;;;19.69;60.92
63181;BME280;49273;37.772;-122.432;2022-10-17T01:24:04;101146.82;;;19.71;60.83
63181;BME280;49273;37.772;-122.432;2022-10-17T01:26:49;101147.47;;;19.57;61.35
63181;BME280;49273;37.772;-122.432;2022-10-17T01:29:37;101150.59;;;19.58;61.73
63181;BME280;49273;37.772;-122.432;2022-10-17T01:32:16;101152.28;;;19.41;62.65
63181;BME280;49273;37.772;-122.432;2022-10-17T01:34:53;101154.81;;;19.39;63.48
63181;BME280;49273;37.772;-122.432;2022-10-17T01:37:28;101159.32;;;19.33;64.28
63181;BME280;49273;37.772;-122.432;2022-10-17T01:40:04;101160.97;;;19.09;64.84
63181;BME280;49273;37.772;-122.432;2022-10-17T01:42:37;101159.13;;;19.12;65.37
63181;BME280;49273;37.772;-122.432;2022-10-17T01:45:12;101158.23;;;18.90;65.60
63181;BME280;49273;37.772;-122.432;2022-10-17T01:47:43;101162.96;;;18.88;66.06
63181;BME280;49273;37.772;-122.432;2022-10-17T01:50:17;101162.68;;;18.88;66.41
63181;BME280;49273;37.772;-122.432;2022-10-17T01:52:49;101161.46;;;18.68;66.81
63181;BME280;49273;37.772;-122.432;2022-10-17T01:55:22;101161.34;;;18.68;67.30
63181;BME280;49273;37.772;-122.432;2022-10-17T01:57:55;101161.64;;;18.67;67.28
63181;BME280;49273;37.772;-122.432;2022-10-17T02:00:27;101159.56;;;18.51;67.88
63181;BME280;49273;37.772;-122.432;2022-10-17T02:02:59;101165.14;;;18.58;68.15
63181;BME280;49273;37.772;-122.432;2022-10-17T02:05:31;101165.26;;;18.56;68.20
63181;BME280;49273;37.772;-122.432;2022-10-17T02:08:00;101162.99;;;18.46;68.80
63181;BME280;49273;37.772;-122.432;2022-10-17T02:10:34;101163.48;;;18.43;69.05
63181;BME280;49273;37.772;-122.432;2022-10-17T02:13:10;101166.01;;;18.23;69.72
63181;BME280;49273;37.772;-122.432;2022-10-17T02:15:53;101166.50;;;18.41;69.36
63181;BME280;49273;37.772;-122.432;2022-10-17T02:18:40;101169.70;;;18.32;69.80
63181;BME280;49273;37.772;-122.432;2022-10-17T02:21:19;101173.56;;;18.26;69.97
63181;BME280;49273;37.772;-122.432;2022-10-17T02:23:54;101174.84;;;18.26;70.10
63181;BME280;49273;37.772;-122.432;2022-10-17T02:26:29;101176.02;;;18.18;70.42
63181;BME280;49273;37.772;-122.432;2022-10-17T02:29:06;101181.66;;;18.16;70.52
63181;BME280;49273;37.772;-122.432;2022-10-17T02:31:38;101187.19;;;18.15;70.72
63181;BME280;49273;37.772;-122.432;2022-10-17T02:34:10;101186.52;;;18.15;70.65
63181;BME280;49273;37.772;-122.432;2022-10-17T02:36:44;101187.68;;;18.11;70.84
63181;BME280;49273;37.772;-122.432;2022-10-17T02:39:15;101188.72;;;18.05;71.08
63181;BME280;49273;37.772;-122.432;2022-10-17T02:41:44;101191.72;;;18.08;70.99
63181;BME280;49273;37.772;-122.432;2022-10-17T02:44:13;101192.01;;;17.87;71.74
63181;BME280;49273;37.772;-122.432;2022-10-17T02:46:42;101197.07;;;17.87;72.03
63181;BME280;49273;37.772;-122.432;2022-10-17T02:49:16;101199.33;;;17.83;72.31
63181;BME280;49273;37.772;-122.432;2022-10-17T02:51:53;101202.00;;;17.93;72.02
63181;BME280;49273;37.772;-122.432;2022-10-17T02:54:29;101204.13;;;17.84;72.21
63181;BME280;49273;37.772;-122.432;2022-10-17T02:57:01;101203.12;;;17.81;72.37
63181;BME280;49273;37.772;-122.432;2022-10-17T02:59:30;101204.76;;;17.79;72.52
63181;BME280;49273;37.772;-122.432;2022-10-17T03:02:02;101206.43;;;17.72;72.73
63181;BME280;49273;37.772;-122.432;2022-10-17T03:04:30;101206.79;;;17.76;72.87
63181;BME280;49273;37.772;-122.432;2022-10-17T03:06:58;101206.52;;;17.70;73.25
63181;BME280;49273;37.772;-122.432;2022-10-17T03:09:26;101209.57;;;17.69;73.17
63181;BME280;49273;37.772;-122.432;2022-10-17T03:11:55;101214.96;;;17.66;73.66
63181;BME280;49273;37.772;-122.432;2022-10-17T03:14:24;101214.76;;;17.68;73.63
63181;BME280;49273;37.772;-122.432;2022-10-17T03:16:52;101217.02;;;17.60;74.00
63181;BME280;49273;37.772;-122.432;2022-10-17T03:19:20;101216.85;;;17.67;73.86
63181;BME280;49273;37.772;-122.432;2022-10-17T03:21:48;101218.79;;;17.64;73.97
63181;BME280;49273;37.772;-122.432;2022-10-17T03:24:16;101216.75;;;17.45;74.80
63181;BME280;49273;37.772;-122.432;2022-10-17T03:26:43;101219.64;;;17.40;75.16
63181;BME280;49273;37.772;-122.432;2022-10-17T03:29:13;101218.43;;;17.47;75.02
63181;BME280;49273;37.772;-122.432;2022-10-17T03:31:41;101216.76;;;17.31;75.72
63181;BME280;49273;37.772;-122.432;2022-10-17T03:34:09;101217.27;;;17.36;76.11
63181;BME280;49273;37.772;-122.432;2022-10-17T03:36:37;101214.80;;;17.32;76.41
63181;BME280;49273;37.772;-122.432;2022-10-17T03:39:05;101214.14;;;17.33;76.83
63181;BME280;49273;37.772;-122.432;2022-10-17T03:41:32;101218.52;;;17.32;76.66
63181;BME280;49273;37.772;-122.432;2022-10-17T03:44:00;101219.30;;;17.15;77.53
63181;BME280;49273;37.772;-122.432;2022-10-17T03:46:28;101220.89;;;17.17;78.21
63181;BME280;49273;37.772;-122.432;2022-10-17T03:48:56;101225.09;;;17.29;77.78
63181;BME280;49273;37.772;-122.432;2022-10-17T03:51:25;101219.63;;;17.23;77.90
63181;BME280;49273;37.772;-122.432;2022-10-17T03:53:54;101222.95;;;17.16;78.17
63181;BME280;49273;37.772;-122.432;2022-10-17T03:56:23;101224.18;;;17.19;78.37
63181;BME280;49273;37.772;-122.432;2022-10-17T03:58:53;101227.47;;;17.14;78.75
63181;BME280;49273;37.772;-122.432;2022-10-17T04:01:22;101233.15;;;17.21;79.05
63181;BME280;49273;37.772;-122.432;2022-10-17T04:03:51;101234.57;;;17.10;78.99
63181;BME280;49273;37.772;-122.432;2022-10-17T04:06:21;101238.22;;;17.06;79.45
63181;BME280;49273;37.772;-122.432;2022-10-17T04:08:49;101243.10;;;16.91;80.05
63181;BME280;49273;37.772;-122.432;2022-10-17T04:11:20;101246.21;;;17.05;79.83
63181;BME280;49273;37.772;-122.432;2022-10-17T04:13:52;101251.08;;;17.08;79.94
63181;BME280;49273;37.772;-122.432;2022-10-17T04:16:21;101251.60;;;17.03;80.24
63181;BME280;49273;37.772;-122.432;2022-10-17T04:18:53;101250.94;;;16.95;80.41
63181;BME280;49273;37.772;-122.432;2022-10-17T04:21:21;101253.76;;;16.88;80.75
63181;BME280;49273;37.772;-122.432;2022-10-17T04:23:53;101253.99;;;17.00;80.75
63181;BME280;49273;37.772;-122.432;2022-10-17T04:26:20;101251.80;;;16.90;81.22
63181;BME280;49273;37.772;-122.432;2022-10-17T04:28:51;101250.32;;;17.01;80.74
63181;BME280;49273;37.772;-122.432;2022-10-17T04:31:19;101246.65;;;16.91;80.88
63181;BME280;49273;37.772;-122.432;2022-10-17T04:33:50;101251.83;;;16.91;80.99
63181;BME280;49273;37.772;-122.432;2022-10-17T04:36:19;101250.77;;;16.91;81.14
63181;BME280;49273;37.772;-122.432;2022-10-17T04:38:47;101250.76;;;16.91;80.91
63181;BME280;49273;37.772;-122.432;2022-10-17T04:41:18;101255.41;;;16.83;81.47
63181;BME280;49273;37.772;-122.432;2022-10-17T04:43:46;101257.88;;;16.96;80.82
63181;BME280;49273;37.772;-122.432;2022-10-17T04:46:15;101259.86;;;16.95;81.10
63181;BME280;49273;37.772;-122.432;2022-10-17T04:48:43;101259.11;;;16.89;81.06
63181;BME280;49273;37.772;-122.432;2022-10-17T04:51:15;101260.51;;;16.88;81.37
63181;BME280;49273;37.772;-122.432;2022-10-17T04:53:45;101263.33;;;16.88;81.22
63181;BME280;49273;37.772;-122.432;2022-10-17T04:56:15;101266.04;;;16.88;81.12
63181;BME280;49273;37.772;-122.432;2022-10-17T04:58:46;101267.31;;;16.90;81.12
63181;BME280;49273;37.772;-122.432;2022-10-17T05:01:18;101268.44;;;16.75;81.51
63181;BME280;49273;37.772;-122.432;2022-10-17T05:03:46;101268.38;;;16.79;81.47
63181;BME280;49273;37.772;-122.432;2022-10-17T05:06:15;101269.22;;;16.86;81.05
63181;BME280;49273;37.772;-122.432;2022-10-17T05:08:45;101267.79;;;16.84;81.13
63181;BME280;49273;37.772;-122.432;2022-10-17T05:11:18;101268.52;;;16.69;81.73
63181;BME280;49273;37.772;-122.432;2022-10-17T05:13:51;101269.08;;;16.79;81.57
63181;BME280;49273;37.772;-122.432;2022-10-17T05:16:21;101271.33;;;16.81;81.46
63181;BME280;49273;37.772;-122.432;2022-10-17T05:18:50;101270.86;;;16.78;81.18
63181;BME280;49273;37.772;-122.432;2022-10-17T05:21:20;101273.29;;;16.66;81.69
63181;BME280;49273;37.772;-122.432;2022-10-17T05:23:49;101272.50;;;16.62;82.06
63181;BME280;49273;37.772;-122.432;2022-10-17T05:26:18;101274.32;;;16.71;81.73
63181;BME280;49273;37.772;-122.432;2022-10-17T05:28:46;101276.61;;;16.68;81.49
63181;BME280;49273;37.772;-122.432;2022-10-17T05:31:14;101276.58;;;16.71;81.18
63181;BME280;49273;37.772;-122.432;2022-10-17T05:33:43;101276.64;;;16.71;81.16
63181;BME280;49273;37.772;-122.432;2022-10-17T05:36:10;101277.69;;;16.71;80.68
63181;BME280;49273;37.772;-122.432;2022-10-17T05:38:38;101277.53;;;16.71;80.31
63181;BME280;49273;37.772;-122.432;2022-10-17T05:41:08;101277.18;;;16.60;80.88
63181;BME280;49273;37.772;-122.432;2022-10-17T05:43:36;101275.17;;;16.48;81.60
63181;BME280;49273;37.772;-122.432;2022-10-17T05:46:05;101271.21;;;16.45;82.33
63181;BME280;49273;37.772;-122.432;2022-10-17T05:48:34;101269.88;;;16.57;82.32
63181;BME280;49273;37.772;-122.432;2022-10-17T05:51:04;101273.64;;;16.71;80.60
63181;BME280;49273;37.772;-122.432;2022-10-17T05:53:34;101273.72;;;16.64;80.51
63181;BME280;49273;37.772;-122.432;2022-10-17T05:56:05;101276.18;;;16.63;80.43
63181;BME280;49273;37.772;-122.432;2022-10-17T05:58:34;101277.58;;;16.60;80.54
63181;BME280;49273;37.772;-122.432;2022-10-17T06:01:05;101275.51;;;16.55;80.58
63181;BME280;49273;37.772;-122.432;2022-10-17T06:03:33;101275.31;;;16.45;80.85
63181;BME280;49273;37.772;-122.432;2022-10-17T06:06:06;101271.05;;;16.41;81.37
63181;BME280;49273;37.772;-122.432;2022-10-17T06:08:34;101271.44;;;16.36;81.50
63181;BME280;49273;37.772;-122.432;2022-10-17T06:11:03;101271.45;;;16.39;81.46
63181;BME280;49273;37.772;-122.432;2022-10-17T06:13:30;101270.35;;;16.30;81.91
63181;BME280;49273;37.772;-122.432;2022-10-17T06:15:59;101269.71;;;16.29;81.93
63181;BME280;49273;37.772;-122.432;2022-10-17T06:18:26;101270.43;;;16.24;82.21
63181;BME280;49273;37.772;-122.432;2022-10-17T06:21:01;101268.25;;;16.21;82.41
63181;BME280;49273;37.772;-122.432;2022-10-17T06:23:29;101268.03;;;16.24;82.31
63181;BME280;49273;37.772;-122.432;2022-10-17T06:25:58;101269.61;;;16.22;82.24
63181;BME280;49273;37.772;-122.432;2022-10-17T06:28:26;101268.61;;;16.35;82.13
63181;BME280;49273;37.772;-122.432;2022-10-17T06:30:54;101270.26;;;16.41;82.13
63181;BME280;49273;37.772;-122.432;2022-10-17T06:33:23;101265.70;;;16.36;81.37
63181;BME280;49273;37.772;-122.432;2022-10-17T06:35:52;101264.83;;;16.25;81.81
63181;BME280;49273;37.772;-122.432;2022-10-17T06:38:20;101266.10;;;16.13;81.70
63181;BME280;49273;37.772;-122.432;2022-10-17T06:40:48;101266.84;;;16.13;81.72
63181;BME280;49273;37.772;-122.432;2022-10-17T06:43:17;101262.60;;;16.06;82.03
63181;BME280;49273;37.772;-122.432;2022-10-17T06:45:46;101264.35;;;16.05;82.08
63181;BME280;49273;37.772;-122.432;2022-10-17T06:48:14;101262.17;;;15.97;82.34
63181;BME280;49273;37.772;-122.432;2022-10-17T06:50:41;101262.12;;;16.01;82.47
63181;BME280;49273;37.772;-122.432;2022-10-17T06:53:10;101265.07;;;16.11;81.87
63181;BME280;49273;37.772;-122.432;2022-10-17T06:55:37;101267.55;;;16.09;81.56
63181;BME280;49273;37.772;-122.432;2022-10-17T06:58:06;101265.30;;;16.03;81.67
63181;BME280;49273;37.772;-122.432;2022-10-17T07:00:34;101262.71;;;15.93;82.15
63181;BME280;49273;37.772;-122.432;2022-10-17T07:03:02;101265.79;;;16.11;81.21
63181;BME280;49273;37.772;-122.432;2022-10-17T07:05:31;101268.96;;;16.04;81.45
63181;BME280;49273;37.772;-122.432;2022-10-17T07:07:59;101271.09;;;16.03;81.70
63181;BME280;49273;37.772;-122.432;2022-10-17T07:10:28;101272.86;;;16.16;80.97
63181;BME280;49273;37.772;-122.432;2022-10-17T07:12:56;101275.39;;;16.17;80.75
63181;BME280;49273;37.772;-122.432;2022-10-17T07:15:24;101272.28;;;15.99;81.17
63181;BME280;49273;37.772;-122.432;2022-10-17T07:17:52;101271.64;;;15.91;81.54
63181;BME280;49273;37.772;-122.432;2022-10-17T07:20:21;101272.34;;;15.97;81.35
63181;BME280;49273;37.772;-122.432;2022-10-17T07:22:50;101269.49;;;16.03;81.08
63181;BME280;49273;37.772;-122.432;2022-10-17T07:25:18;101271.03;;;15.89;81.45
63181;BME280;49273;37.772;-122.432;2022-10-17T07:27:47;101275.19;;;15.90;81.39
63181;BME280;49273;37.772;-122.432;2022-10-17T07:30:16;101278.50;;;15.89;81.45
63181;BME280;49273;37.772;-122.432;2022-10-17T07:32:45;101281.05;;;16.01;80.96
63181;BME280;49273;37.772;-122.432;2022-10-17T07:35:14;101286.93;;;15.98;80.91
63181;BME280;49273;37.772;-122.432;2022-10-17T07:37:41;101284.91;;;15.97;80.64
63181;BME280;49273;37.772;-122.432;2022-10-17T07:40:10;101286.10;;;15.89;80.80
63181;BME280;49273;37.772;-122.432;2022-10-17T07:42:38;101284.14;;;15.88;80.69
63181;BME280;49273;37.772;-122.432;2022-10-17T07:45:07;101286.03;;;15.94;80.37
63181;BME280;49273;37.772;-122.432;2022-10-17T07:47:35;101287.63;;;16.02;80.20
63181;BME280;49273;37.772;-122.432;2022-10-17T07:50:04;101284.26;;;15.94;80.33
63181;BME280;49273;37.772;-122.432;2022-10-17T07:52:33;101287.74;;;15.96;80.20
63181;BME280;49273;37.772;-122.432;2022-10-17T07:55:02;101288.03;;;15.96;79.54
63181;BME280;49273;37.772;-122.432;2022-10-17T07:57:30;101292.76;;;16.03;79.18
63181;BME280;49273;37.772;-122.432;2022-10-17T07:59:57;101296.57;;;16.17;78.61
63181;BME280;49273;37.772;-122.432;2022-10-17T08:02:26;101291.55;;;15.76;80.47
63181;BME280;49273;37.772;-122.432;2022-10-17T08:04:54;101292.48;;;15.96;79.20
63181;BME280;49273;37.772;-122.432;2022-10-17T08:07:23;101288.38;;;15.78;79.70
63181;BME280;49273;37.772;-122.432;2022-10-17T08:09:51;101283.84;;;15.75;79.78
63181;BME280;49273;37.772;-122.432;2022-10-17T08:12:19;101280.44;;;15.59;80.40
63181;BME280;49273;37.772;-122.432;2022-10-17T08:14:47;101280.50;;;15.67;80.03
63181;BME280;49273;37.772;-122.432;2022-10-17T08:17:15;101285.53;;;15.68;79.99
63181;BME280;49273;37.772;-122.432;2022-10-17T08:19:43;101286.94;;;15.65;79.99
63181;BME280;49273;37.772;-122.432;2022-10-17T08:22:11;101290.08;;;15.55;80.16
63181;BME280;49273;37.772;-122.432;2022-10-17T08:24:39;101293.26;;;15.50;80.79
63181;BME280;49273;37.772;-122.432;2022-10-17T08:27:08;101291.76;;;15.51;80.97
63181;BME280;49273;37.772;-122.432;2022-10-17T08:29:35;101284.71;;;15.53;80.95
63181;BME280;49273;37.772;-122.432;2022-10-17T08:32:04;101283.31;;;15.58;81.05
63181;BME280;49273;37.772;-122.432;2022-10-17T08:34:32;101283.67;;;15.67;80.20
63181;BME280;49273;37.772;-122.432;2022-10-17T08:37:00;101282.23;;;15.64;80.36
63181;BME280;49273;37.772;-122.432;2022-10-17T08:39:28;101282.12;;;15.67;80.24
63181;BME280;49273;37.772;-122.432;2022-10-17T08:42:04;101281.25;;;15.70;79.80
63181;BME280;49273;37.772;-122.432;2022-10-17T08:44:48;101282.87;;;15.82;79.00
63181;BME280;49273;37.772;-122.432;2022-10-17T08:47:26;101283.47;;;15.79;78.66
63181;BME280;49273;37.772;-122.432;2022-10-17T08:49:57;101283.84;;;15.83;78.54
63181;BME280;49273;37.772;-122.432;2022-10-17T08:52:32;101283.90;;;15.65;78.85
63181;BME280;49273;37.772;-122.432;2022-10-17T08:55:02;101284.50;;;15.64;78.86
63181;BME280;49273;37.772;-122.432;2022-10-17T08:57:30;101287.15;;;15.64;78.89
63181;BME280;49273;37.772;-122.432;2022-10-17T08:59:57;101286.18;;;15.60;78.98
63181;BME280;49273;37.772;-122.432;2022-10-17T09:02:37;101294.15;;;15.54;79.30
63181;BME280;49273;37.772;-122.432;2022-10-17T09:05:26;101298.26;;;15.58;79.10
63181;BME280;49273;37.772;-122.432;2022-10-17T09:08:02;101299.88;;;15.51;79.61
63181;BME280;49273;37.772;-122.432;2022-10-17T09:10:39;101297.68;;;15.65;79.18
63181;BME280;49273;37.772;-122.432;2022-10-17T09:13:23;101292.51;;;15.63;78.99
63181;BME280;49273;37.772;-122.432;2022-10-17T09:16:03;101294.47;;;15.67;79.06
63181;BME280;49273;37.772;-122.432;2022-10-17T09:18:38;101299.63;;;15.63;79.14
63181;BME280;49273;37.772;-122.432;2022-10-17T09:21:16;101301.67;;;15.62;79.23
63181;BME280;49273;37.772;-122.432;2022-10-17T09:23:49;101301.44;;;15.61;79.17
63181;BME280;49273;37.772;-122.432;2022-10-17T09:26:19;101304.86;;;15.71;78.83
63181;BME280;49273;37.772;-122.432;2022-10-17T09:28:52;101307.17;;;15.52;79.24
63181;BME280;49273;37.772;-122.432;2022-10-17T09:31:23;101307.72;;;15.44;79.59
63181;BME280;49273;37.772;-122.432;2022-10-17T09:33:54;101310.14;;;15.46;79.46
63181;BME280;49273;37.772;-122.432;2022-10-17T09:36:28;101310.07;;;15.51;79.13
63181;BME280;49273;37.772;-122.432;2022-10-17T09:38:57;101306.16;;;15.50;79.16
63181;BME280;49273;37.772;-122.432;2022-10-17T09:41:35;101303.63;;;15.65;78.61
63181;BME280;49273;37.772;-122.432;2022-10-17T09:44:13;101299.37;;;15.60;78.60
63181;BME280;49273;37.772;-122.432;2022-10-17T09:46:45;101293.03;;;15.59;78.84
63181;BME280;49273;37.772;-122.432;2022-10-17T09:49:20;101292.36;;;15.57;79.30
63181;BME280;49273;37.772;-122.432;2022-10-17T09:51:52;101290.44;;;15.60;79.15
63181;BME280;49273;37.772;-122.432;2022-10-17T09:54:23;101287.48;;;15.53;79.03
63181;BME280;49273;37.772;-122.432;2022-10-17T09:57:02;101289.61;;;15.49;79.11
63181;BME280;49273;37.772;-122.432;2022-10-17T09:59:33;101292.57;;;15.51;78.85
63181;BME280;49273;37.772;-122.432;2022-10-17T10:02:09;101291.95;;;15.47;78.93
63181;BME280;49273;37.772;-122.432;2022-10-17T10:04:54;101292.31;;;15.46;78.95
63181;BME280;49273;37.772;-122.432;2022-10-17T10:07:24;101289.59;;;15.46;78.90
63181;BME280;49273;37.772;-122.432;2022-10-17T10:09:54;101289.70;;;15.45;79.46
63181;BME280;49273;37.772;-122.432;2022-10-17T10:12:25;101289.79;;;15.40;79.70
63181;BME280;49273;37.772;-122.432;2022-10-17T10:14:53;101289.65;;;15.40;80.33
63181;BME280;49273;37.772;-122.432;2022-10-17T10:17:35;101286.51;;;15.41;80.31
63181;BME280;49273;37.772;-122.432;2022-10-17T10:20:25;101287.40;;;15.47;80.31
63181;BME280;49273;37.772;-122.432;2022-10-17T10:23:11;101282.59;;;15.60;80.37
63181;BME280;49273;37.772;-122.432;2022-10-17T10:25:50;101276.96;;;15.61;79.99
63181;BME280;49273;37.772;-122.432;2022-10-17T10:28:19;101275.43;;;15.65;80.69
63181;BME280;49273;37.772;-122.432;2022-10-17T10:30:50;101271.27;;;15.81;79.65
63181;BME280;49273;37.772;-122.432;2022-10-17T10:33:19;101267.59;;;15.76;79.25
63181;BME280;49273;37.772;-122.432;2022-10-17T10:35:55;101266.00;;;15.78;78.83
63181;BME280;49273;37.772;-122.432;2022-10-17T10:38:24;101263.84;;;15.81;78.87
63181;BME280;49273;37.772;-122.432;2022-10-17T10:40:55;101264.44;;;15.88;79.46
63181;BME280;49273;37.772;-122.432;2022-10-17T10:43:33;101262.95;;;15.92;78.62
63181;BME280;49273;37.772;-122.432;2022-10-17T10:46:05;101261.12;;;15.73;79.14
63181;BME280;49273;37.772;-122.432;2022-10-17T10:48:49;101260.43;;;15.59;79.90
63181;BME280;49273;37.772;-122.432;2022-10-17T10:51:22;101258.26;;;15.54;79.45
63181;BME280;49273;37.772;-122.432;2022-10-17T10:53:55;101262.84;;;15.39;79.47
63181;BME280;49273;37.772;-122.432;2022-10-17T10:56:30;101261.05;;;15.29;79.88
63181;BME280;49273;37.772;-122.432;2022-10-17T10:59:05;101259.31;;;15.15;80.48
63181;BME280;49273;37.772;-122.432;2022-10-17T11:01:42;101258.55;;;15.25;79.72
63181;BME280;49273;37.772;-122.432;2022-10-17T11:04:24;101254.93;;;15.19;79.65
63181;BME280;49273;37.772;-122.432;2022-10-17T11:06:59;101256.27;;;15.12;80.09
63181;BME280;49273;37.772;-122.432;2022-10-17T11:09:39;101252.95;;;15.05;79.86
63181;BME280;49273;37.772;-122.432;2022-10-17T11:12:17;101250.69;;;15.00;80.37
63181;BME280;49273;37.772;-122.432;2022-10-17T11:14:50;101250.85;;;15.03;79.41
63181;BME280;49273;37.772;-122.432;2022-10-17T11:17:27;101251.22;;;14.78;79.98
63181;BME280;49273;37.772;-122.432;2022-10-17T11:20:08;101245.65;;;14.74;80.47
63181;BME280;49273;37.772;-122.432;2022-10-17T11:22:41;101243.60;;;14.85;80.41
63181;BME280;49273;37.772;-122.432;2022-10-17T11:25:21;101243.39;;;14.84;80.10
63181;BME280;49273;37.772;-122.432;2022-10-17T11:27:52;101241.51;;;14.76;80.84
63181;BME280;49273;37.772;-122.432;2022-10-17T11:30:24;101237.42;;;14.76;81.28
63181;BME280;49273;37.772;-122.432;2022-10-17T11:32:58;101233.87;;;14.78;81.55
63181;BME280;49273;37.772;-122.432;2022-10-17T11:35:28;101237.55;;;14.85;81.38
63181;BME280;49273;37.772;-122.432;2022-10-17T11:38:06;101238.66;;;14.90;80.73
63181;BME280;49273;37.772;-122.432;2022-10-17T11:40:39;101236.33;;;14.99;81.00
63181;BME280;49273;37.772;-122.432;2022-10-17T11:43:13;101234.87;;;15.05;80.58
63181;BME280;49273;37.772;-122.432;2022-10-17T11:45:46;101238.99;;;15.11;80.11
63181;BME280;49273;37.772;-122.432;2022-10-17T11:48:20;101239.61;;;14.98;80.53
63181;BME280;49273;37.772;-122.432;2022-10-17T11:50:54;101236.53;;;14.81;81.84
63181;BME280;49273;37.772;-122.432;2022-10-17T11:53:32;101235.59;;;14.98;81.24
63181;BME280;49273;37.772;-122.432;2022-10-17T11:56:04;101236.29;;;15.07;80.61
63181;BME280;49273;37.772;-122.432;2022-10-17T11:58:36;101237.06;;;14.94;80.52
63181;BME280;49273;37.772;-122.432;2022-10-17T12:01:14;101240.34;;;15.12;80.62
63181;BME280;49273;37.772;-122.432;2022-10-17T12:03:56;101240.85;;;15.06;80.25
63181;BME280;49273;37.772;-122.432;2022-10-17T12:06:41;101243.84;;;14.94;80.51
63181;BME280;49273;37.772;-122.432;2022-10-17T12:09:22;101243.44;;;14.98;80.07
63181;BME280;49273;37.772;-122.432;2022-10-17T12:11:54;101244.06;;;14.84;80.33
63181;BME280;49273;37.772;-122.432;2022-10-17T12:14:42;101248.28;;;14.85;80.66
63181;BME280;49273;37.772;-122.432;2022-10-17T12:17:29;101251.43;;;14.89;80.54
63181;BME280;49273;37.772;-122.432;2022-10-17T12:21:02;101246.81;;;14.85;80.74
63181;BME280;49273;37.772;-122.432;2022-10-17T12:23:31;101251.97;;;14.89;80.64
63181;BME280;49273;37.772;-122.432;2022-10-17T12:26:02;101253.19;;;14.77;80.69
63181;BME280;49273;37.772;-122.432;2022-10-17T12:28:41;101248.49;;;14.68;81.57
63181;BME280;49273;37.772;-122.432;2022-10-17T12:31:21;101250.85;;;14.81;80.94
63181;BME280;49273;37.772;-122.432;2022-10-17T12:33:51;101255.53;;;14.82;80.30
63181;BME280;49273;37.772;-122.432;2022-10-17T12:36:37;101254.71;;;14.66;81.08
63181;BME280;49273;37.772;-122.432;2022-10-17T12:39:41;101255.65;;;14.65;81.08
63181;BME280;49273;37.772;-122.432;2022-10-17T12:42:31;101254.45;;;14.61;81.60
63181;BME280;49273;37.772;-122.432;2022-10-17T12:45:00;101253.83;;;14.67;81.62